KVNYKPRB

Guest
Details From KVNY - Van Nuys
To KPRB - PASO ROBLES MUNI
Flight Number -
Tags generated
Created
Modified
Stats Distance 137 nm / 254 km
Max Altitude 14,900 ft / 4,542 m
Waypoints 3
Social Downloads 0
Likes 0
Share VATSIM

Download

Looking for another format? Having issues loading an existing format? Contact us
Advertisement - Login to hide

Notes

Basic altitude profile: - Ascent Rate: 2500ft/min - Ascent Speed: 109kts - Cruise Altitude: 35000ft - Cruise Speed: 109kts - Descent Rate: 1500ft/min - Descent Speed: 109kts Options: - Use NATs: yes - Use PACOTS: yes - Use low airways: yes - Use high airways: no

Route

KVNY REYES KPRB

ID Type Via Altitude Latitude Longitude Leg Dist Tot Dist Heading (true) Name
O KVNY APT - 0 ft / 0 m 34.21072˚ -118.48984˚ - 0 nm - Van Nuys
REYES FIX - 14,900 ft / 4,542 m 34.65873˚ -119.13432˚ 41 nm 41 nm 310° / 310° -
O KPRB APT - 0 ft / 0 m 35.67281˚ -120.62656˚ 95 nm 137 nm 310° / 309° PASO ROBLES MUNI

Altitude Profile

Advertisement - Login to hide

KVNY

Details ICAO KVNY (VNY)
Name Van Nuys
Region United States
Timezone America/Los_Angeles (UTC-7.0)
Stats Elevation 802 ft / 244 m (AMSL)
Location 34.210723° -118.489841°
Runways 2
Magnetic Variation 12.035° E

METAR

KVNY 262151Z 17010G16KT 10SM BKN045 21/09 A2996 RMK AO2 SLP139 T02060094

Decode

TAF

KVNY 261721Z 2618/2718 15005KT P6SM SCT025 FM262000 16014KT P6SM BKN035 FM270200 12006KT P6SM SKC FM271100 12006KT P6SM BKN010 FM271600 15006KT P6SM SKC

Decode

Departure Runways

ID Width Length Bearing (true) Bearing (mag) Surface Threshold Offset Overrun Length
16L 75 ft / 23 m 4,021 ft / 1,226 m 175.53° 163.49° Asphalt 1,430 ft / 436 m 0 ft / 0 m
16R 151 ft / 46 m 8,022 ft / 2,445 m 175.54° 163.50° Asphalt 1,430 ft / 436 m 151 ft / 46 m
34L 151 ft / 46 m 8,022 ft / 2,445 m 355.54° 343.50° Asphalt 0 ft / 0 m 151 ft / 46 m
34R 75 ft / 23 m 4,021 ft / 1,226 m 355.53° 343.49° Asphalt 0 ft / 0 m 0 ft / 0 m

KPRB

Details ICAO KPRB
Name PASO ROBLES MUNI
Region United States
Timezone America/Los_Angeles (UTC-7.0)
Stats Elevation 836 ft / 255 m (AMSL)
Location 35.672813° -120.626559°
Runways 2
Magnetic Variation 12.725° E

METAR

KPRB 262153Z AUTO 21011KT 10SM FEW050 23/09 A2999 RMK AO2 SLP152 T02280094

Decode

TAF

KPRB 262005Z 2620/2718 33008KT P6SM SCT020 FM262100 32015KT P6SM SCT040 FM270300 30008KT P6SM SKC FM271000 VRB03KT P6SM BKN008 FM271600 VRB03KT P6SM SKC

Decode

Destination Runways

ID Width Length Bearing (true) Bearing (mag) Surface Threshold Offset Overrun Length
01 150 ft / 46 m 6,016 ft / 1,834 m 28.54° 15.81° Asphalt 0 ft / 0 m 0 ft / 0 m
13 100 ft / 30 m 4,704 ft / 1,434 m 143.77° 131.04° Asphalt 0 ft / 0 m 0 ft / 0 m
19 150 ft / 46 m 6,016 ft / 1,834 m 208.54° 195.81° Asphalt 0 ft / 0 m 0 ft / 0 m
31 100 ft / 30 m 4,704 ft / 1,434 m 323.77° 311.04° Asphalt 0 ft / 0 m 0 ft / 0 m